This is the latest recevied weather packets stored in our database for station/object YN9ZMM-13. If no packets are shown the sender has not sent any weather packets the latest 10 day(s).
| Time | Temp. | Humidity | Pressure | Rain* | Wind** | Luminosity | Snow |
|---|---|---|---|---|---|---|---|
| 1777588145 | 28.89° C | 48% | 1008 hPa | 0 mm | - | - | - |
| 1777587545 | 28.89° C | 46% | 1008 hPa | 0 mm | - | - | - |
| 1777586944 | 28.33° C | 42% | 1008 hPa | 0 mm | - | - | - |
| 1777586344 | 29.44° C | 42% | 1008 hPa | 0 mm | - | - | - |
| 1777585744 | 29.44° C | 42% | 1008 hPa | 0 mm | - | - | - |
| 1777585143 | 30° C | 42% | 1008 hPa | 0 mm | - | - | - |
| 1777584543 | 30° C | 42% | 1008 hPa | 0 mm | - | - | - |
| 1777583942 | 29.44° C | 42% | 1008 hPa | 0 mm | - | - | - |
| 1777583342 | 30.56° C | 47% | 1008 hPa | 0 mm | - | - | - |
| 1777582742 | 30° C | 47% | 1008 hPa | 0 mm | - | - | - |
| 1777582142 | 30° C | 47% | 1008 hPa | 0 mm | - | - | - |
| 1777581541 | 30° C | 47% | 1008 hPa | 0 mm | - | - | - |
| 1777580941 | 30° C | 47% | 1009 hPa | 0 mm | - | - | - |
| 1777580341 | 30° C | 47% | 1009 hPa | 0 mm | - | - | - |
| 1777579740 | 30° C | 47% | 1008 hPa | 0 mm | - | - | - |
| 1777579140 | 29.44° C | 47% | 1008 hPa | 0 mm | - | - | - |
| 1777578540 | 29.44° C | 47% | 1008 hPa | 0 mm | - | - | - |
| 1777577940 | 29.44° C | 47% | 1008 hPa | 0 mm | - | - | - |
| 1777577339 | 29.44° C | 47% | 1010 hPa | 0 mm | - | - | - |
| 1777576739 | 29.44° C | 48% | 1010 hPa | 0 mm | - | - | - |
| 1777576138 | 29.44° C | 50% | 1009 hPa | 0 mm | - | - | - |
| 1777575538 | 28.89° C | 50% | 1009 hPa | 0 mm | - | - | - |
| 1777574938 | 28.33° C | 50% | 1009 hPa | 0 mm | - | - | - |
| 1777574337 | 28.33° C | 50% | 1009 hPa | 0 mm | - | - | - |
| 1777573737 | 28.89° C | 51% | 1010 hPa | 0 mm | - | - | - |
* Rain latest hour (hover to see other rain measurements)
** Current wind speed in m/s (hover to see current wind gust speed)